sensor_id;sensor_type;location;lat;lon;timestamp;temperature;humidity
21167;DHT22;10741;52.272;9.580;2023-05-29T00:00:19;13.40;99.90
21167;DHT22;10741;52.272;9.580;2023-05-29T00:02:46;13.40;99.90
21167;DHT22;10741;52.272;9.580;2023-05-29T00:05:13;13.30;99.90
21167;DHT22;10741;52.272;9.580;2023-05-29T00:07:40;13.30;99.90
21167;DHT22;10741;52.272;9.580;2023-05-29T00:10:07;13.20;99.90
21167;DHT22;10741;52.272;9.580;2023-05-29T00:12:33;13.10;99.90
21167;DHT22;10741;52.272;9.580;2023-05-29T00:14:59;13.10;99.90
21167;DHT22;10741;52.272;9.580;2023-05-29T00:17:25;13.00;99.90
21167;DHT22;10741;52.272;9.580;2023-05-29T00:19:51;13.00;99.90
21167;DHT22;10741;52.272;9.580;2023-05-29T00:22:17;12.90;99.90
21167;DHT22;10741;52.272;9.580;2023-05-29T00:24:43;12.80;99.90
21167;DHT22;10741;52.272;9.580;2023-05-29T00:27:09;12.80;99.90
21167;DHT22;10741;52.272;9.580;2023-05-29T00:29:36;12.80;99.90
21167;DHT22;10741;52.272;9.580;2023-05-29T00:32:06;12.70;99.90
21167;DHT22;10741;52.272;9.580;2023-05-29T00:34:32;12.70;99.90
21167;DHT22;10741;52.272;9.580;2023-05-29T00:36:58;12.60;99.90
21167;DHT22;10741;52.272;9.580;2023-05-29T00:39:24;12.60;99.90
21167;DHT22;10741;52.272;9.580;2023-05-29T00:41:50;12.60;99.90
21167;DHT22;10741;52.272;9.580;2023-05-29T00:44:19;12.50;99.90
21167;DHT22;10741;52.272;9.580;2023-05-29T00:46:46;12.40;99.90
21167;DHT22;10741;52.272;9.580;2023-05-29T00:49:13;12.40;99.90
21167;DHT22;10741;52.272;9.580;2023-05-29T00:51:40;12.30;99.90
21167;DHT22;10741;52.272;9.580;2023-05-29T00:54:12;12.30;99.90
21167;DHT22;10741;52.272;9.580;2023-05-29T00:56:39;12.30;99.90
21167;DHT22;10741;52.272;9.580;2023-05-29T00:59:05;12.20;99.90
21167;DHT22;10741;52.272;9.580;2023-05-29T01:01:31;12.20;99.90
21167;DHT22;10741;52.272;9.580;2023-05-29T01:03:59;12.20;99.90
21167;DHT22;10741;52.272;9.580;2023-05-29T01:06:26;12.10;99.90
21167;DHT22;10741;52.272;9.580;2023-05-29T01:08:52;12.10;99.90
21167;DHT22;10741;52.272;9.580;2023-05-29T01:12:30;12.00;99.90
21167;DHT22;10741;52.272;9.580;2023-05-29T01:17:17;11.90;99.90
21167;DHT22;10741;52.272;9.580;2023-05-29T01:20:16;11.90;99.90
21167;DHT22;10741;52.272;9.580;2023-05-29T01:25:23;11.80;99.90
21167;DHT22;10741;52.272;9.580;2023-05-29T01:27:49;11.80;99.90
21167;DHT22;10741;52.272;9.580;2023-05-29T01:30:18;11.80;99.90
21167;DHT22;10741;52.272;9.580;2023-05-29T01:32:47;11.70;99.90
21167;DHT22;10741;52.272;9.580;2023-05-29T01:35:12;11.70;99.90
21167;DHT22;10741;52.272;9.580;2023-05-29T01:37:38;11.60;99.90
21167;DHT22;10741;52.272;9.580;2023-05-29T01:40:04;11.60;99.90
21167;DHT22;10741;52.272;9.580;2023-05-29T01:42:30;11.50;99.90
21167;DHT22;10741;52.272;9.580;2023-05-29T01:44:57;11.50;99.90
21167;DHT22;10741;52.272;9.580;2023-05-29T01:47:23;11.50;99.90
21167;DHT22;10741;52.272;9.580;2023-05-29T01:49:51;11.50;99.90
21167;DHT22;10741;52.272;9.580;2023-05-29T01:52:17;11.50;99.90
21167;DHT22;10741;52.272;9.580;2023-05-29T01:54:44;11.50;99.90
21167;DHT22;10741;52.272;9.580;2023-05-29T01:57:10;11.40;99.90
21167;DHT22;10741;52.272;9.580;2023-05-29T01:59:37;11.30;99.90
21167;DHT22;10741;52.272;9.580;2023-05-29T02:02:09;11.30;99.90
21167;DHT22;10741;52.272;9.580;2023-05-29T02:04:35;11.20;99.90
21167;DHT22;10741;52.272;9.580;2023-05-29T02:07:01;11.20;99.90
21167;DHT22;10741;52.272;9.580;2023-05-29T02:09:27;11.20;99.90
21167;DHT22;10741;52.272;9.580;2023-05-29T02:11:54;11.20;99.90
21167;DHT22;10741;52.272;9.580;2023-05-29T02:14:20;11.10;99.90
21167;DHT22;10741;52.272;9.580;2023-05-29T02:16:45;11.10;99.90
21167;DHT22;10741;52.272;9.580;2023-05-29T02:19:11;11.10;99.90
21167;DHT22;10741;52.272;9.580;2023-05-29T02:21:40;11.10;99.90
21167;DHT22;10741;52.272;9.580;2023-05-29T02:24:06;11.00;99.90
21167;DHT22;10741;52.272;9.580;2023-05-29T02:26:32;11.00;99.90
21167;DHT22;10741;52.272;9.580;2023-05-29T02:28:58;11.00;99.90
21167;DHT22;10741;52.272;9.580;2023-05-29T02:31:24;10.90;99.90
21167;DHT22;10741;52.272;9.580;2023-05-29T02:33:50;10.80;99.90
21167;DHT22;10741;52.272;9.580;2023-05-29T02:36:16;10.80;99.90
21167;DHT22;10741;52.272;9.580;2023-05-29T02:38:42;10.80;99.90
21167;DHT22;10741;52.272;9.580;2023-05-29T02:41:08;10.80;99.90
21167;DHT22;10741;52.272;9.580;2023-05-29T02:43:34;10.80;99.90
21167;DHT22;10741;52.272;9.580;2023-05-29T02:45:59;10.70;99.90
21167;DHT22;10741;52.272;9.580;2023-05-29T02:48:25;10.70;99.90
21167;DHT22;10741;52.272;9.580;2023-05-29T02:50:51;10.60;99.90
21167;DHT22;10741;52.272;9.580;2023-05-29T02:53:17;10.70;99.90
21167;DHT22;10741;52.272;9.580;2023-05-29T02:55:44;10.60;99.90
21167;DHT22;10741;52.272;9.580;2023-05-29T02:58:10;10.50;99.90
21167;DHT22;10741;52.272;9.580;2023-05-29T03:00:37;10.50;99.90
21167;DHT22;10741;52.272;9.580;2023-05-29T03:03:03;10.50;99.90
21167;DHT22;10741;52.272;9.580;2023-05-29T03:05:30;10.50;99.90
21167;DHT22;10741;52.272;9.580;2023-05-29T03:07:55;10.40;99.90
21167;DHT22;10741;52.272;9.580;2023-05-29T03:10:21;10.40;99.90
21167;DHT22;10741;52.272;9.580;2023-05-29T03:12:47;10.40;99.90
21167;DHT22;10741;52.272;9.580;2023-05-29T03:15:13;10.40;99.90
21167;DHT22;10741;52.272;9.580;2023-05-29T03:17:39;10.40;99.90
21167;DHT22;10741;52.272;9.580;2023-05-29T03:20:06;10.40;99.90
21167;DHT22;10741;52.272;9.580;2023-05-29T03:22:35;10.30;99.90
21167;DHT22;10741;52.272;9.580;2023-05-29T03:25:02;10.40;99.90
21167;DHT22;10741;52.272;9.580;2023-05-29T03:27:28;10.40;99.90
21167;DHT22;10741;52.272;9.580;2023-05-29T03:29:55;10.40;99.90
21167;DHT22;10741;52.272;9.580;2023-05-29T03:32:21;10.30;99.90
21167;DHT22;10741;52.272;9.580;2023-05-29T03:34:46;10.20;99.90
21167;DHT22;10741;52.272;9.580;2023-05-29T03:37:13;10.20;99.90
21167;DHT22;10741;52.272;9.580;2023-05-29T03:39:39;10.30;99.90
21167;DHT22;10741;52.272;9.580;2023-05-29T03:42:05;10.30;99.90
21167;DHT22;10741;52.272;9.580;2023-05-29T03:44:31;10.30;99.90
21167;DHT22;10741;52.272;9.580;2023-05-29T03:46:56;10.20;99.90
21167;DHT22;10741;52.272;9.580;2023-05-29T03:49:22;10.30;99.90
21167;DHT22;10741;52.272;9.580;2023-05-29T03:51:49;10.40;99.90
21167;DHT22;10741;52.272;9.580;2023-05-29T03:54:15;10.50;99.90
21167;DHT22;10741;52.272;9.580;2023-05-29T03:56:41;10.60;99.90
21167;DHT22;10741;52.272;9.580;2023-05-29T03:59:07;10.60;99.90
21167;DHT22;10741;52.272;9.580;2023-05-29T04:01:32;10.70;99.90
21167;DHT22;10741;52.272;9.580;2023-05-29T04:03:58;10.80;99.90
21167;DHT22;10741;52.272;9.580;2023-05-29T04:06:24;10.80;99.90
21167;DHT22;10741;52.272;9.580;2023-05-29T04:08:50;10.90;99.90
21167;DHT22;10741;52.272;9.580;2023-05-29T04:11:15;11.00;99.90
21167;DHT22;10741;52.272;9.580;2023-05-29T04:13:41;11.00;99.90
21167;DHT22;10741;52.272;9.580;2023-05-29T04:16:07;11.10;99.90
21167;DHT22;10741;52.272;9.580;2023-05-29T04:18:33;11.10;99.90
21167;DHT22;10741;52.272;9.580;2023-05-29T04:20:59;11.20;99.90
21167;DHT22;10741;52.272;9.580;2023-05-29T04:23:25;11.10;99.90
21167;DHT22;10741;52.272;9.580;2023-05-29T04:25:51;11.20;99.90
21167;DHT22;10741;52.272;9.580;2023-05-29T04:28:17;11.30;99.90
21167;DHT22;10741;52.272;9.580;2023-05-29T04:30:43;11.30;99.90
21167;DHT22;10741;52.272;9.580;2023-05-29T04:33:08;11.30;99.90
21167;DHT22;10741;52.272;9.580;2023-05-29T04:35:38;11.40;99.90
21167;DHT22;10741;52.272;9.580;2023-05-29T04:38:03;11.40;99.90
21167;DHT22;10741;52.272;9.580;2023-05-29T04:40:30;11.50;99.90
21167;DHT22;10741;52.272;9.580;2023-05-29T04:42:57;11.50;99.90
21167;DHT22;10741;52.272;9.580;2023-05-29T04:45:26;11.60;99.90
21167;DHT22;10741;52.272;9.580;2023-05-29T04:47:51;11.60;99.90
21167;DHT22;10741;52.272;9.580;2023-05-29T04:50:20;11.60;99.90
21167;DHT22;10741;52.272;9.580;2023-05-29T04:52:46;11.70;99.90
21167;DHT22;10741;52.272;9.580;2023-05-29T04:55:12;11.60;99.90
21167;DHT22;10741;52.272;9.580;2023-05-29T04:57:38;11.60;99.90
21167;DHT22;10741;52.272;9.580;2023-05-29T05:00:04;11.50;99.90
21167;DHT22;10741;52.272;9.580;2023-05-29T05:02:41;11.50;99.90
21167;DHT22;10741;52.272;9.580;2023-05-29T05:05:07;11.60;99.90
21167;DHT22;10741;52.272;9.580;2023-05-29T05:07:33;11.60;99.90
21167;DHT22;10741;52.272;9.580;2023-05-29T05:09:59;11.60;99.90
21167;DHT22;10741;52.272;9.580;2023-05-29T05:12:25;11.80;99.90
21167;DHT22;10741;52.272;9.580;2023-05-29T05:14:51;11.80;99.90
21167;DHT22;10741;52.272;9.580;2023-05-29T05:17:16;11.90;99.90
21167;DHT22;10741;52.272;9.580;2023-05-29T05:19:42;12.00;99.90
21167;DHT22;10741;52.272;9.580;2023-05-29T05:22:08;12.10;99.90
21167;DHT22;10741;52.272;9.580;2023-05-29T05:24:34;12.10;99.90
21167;DHT22;10741;52.272;9.580;2023-05-29T05:27:00;12.20;99.90
21167;DHT22;10741;52.272;9.580;2023-05-29T05:29:26;12.20;99.90
21167;DHT22;10741;52.272;9.580;2023-05-29T05:31:52;12.10;99.90
21167;DHT22;10741;52.272;9.580;2023-05-29T05:34:17;12.10;99.90
21167;DHT22;10741;52.272;9.580;2023-05-29T05:36:43;12.10;99.90
21167;DHT22;10741;52.272;9.580;2023-05-29T05:39:09;12.20;99.90
21167;DHT22;10741;52.272;9.580;2023-05-29T05:41:34;12.30;99.90
21167;DHT22;10741;52.272;9.580;2023-05-29T05:44:00;12.40;99.90
21167;DHT22;10741;52.272;9.580;2023-05-29T05:46:26;12.60;99.90
21167;DHT22;10741;52.272;9.580;2023-05-29T05:48:51;12.50;99.90
21167;DHT22;10741;52.272;9.580;2023-05-29T05:51:17;12.40;99.90
21167;DHT22;10741;52.272;9.580;2023-05-29T05:53:44;12.30;99.90
21167;DHT22;10741;52.272;9.580;2023-05-29T05:56:10;12.30;99.90
21167;DHT22;10741;52.272;9.580;2023-05-29T05:58:36;12.30;99.90
21167;DHT22;10741;52.272;9.580;2023-05-29T06:01:02;12.30;99.90
21167;DHT22;10741;52.272;9.580;2023-05-29T06:03:27;12.40;99.90
21167;DHT22;10741;52.272;9.580;2023-05-29T06:05:53;12.40;99.90
21167;DHT22;10741;52.272;9.580;2023-05-29T06:08:20;12.50;99.90
21167;DHT22;10741;52.272;9.580;2023-05-29T06:10:46;12.70;99.90
21167;DHT22;10741;52.272;9.580;2023-05-29T06:13:11;12.80;99.90
21167;DHT22;10741;52.272;9.580;2023-05-29T06:15:37;12.90;99.90
21167;DHT22;10741;52.272;9.580;2023-05-29T06:18:04;12.80;99.90
21167;DHT22;10741;52.272;9.580;2023-05-29T06:20:30;12.80;99.90
21167;DHT22;10741;52.272;9.580;2023-05-29T06:22:56;12.70;99.90
21167;DHT22;10741;52.272;9.580;2023-05-29T06:25:22;12.80;99.90
21167;DHT22;10741;52.272;9.580;2023-05-29T06:27:54;12.90;99.90
21167;DHT22;10741;52.272;9.580;2023-05-29T06:30:20;13.00;99.90
21167;DHT22;10741;52.272;9.580;2023-05-29T06:32:46;13.10;99.90
21167;DHT22;10741;52.272;9.580;2023-05-29T06:35:13;13.10;99.90
21167;DHT22;10741;52.272;9.580;2023-05-29T06:37:39;13.20;99.90
21167;DHT22;10741;52.272;9.580;2023-05-29T06:40:05;13.40;99.90
21167;DHT22;10741;52.272;9.580;2023-05-29T06:42:31;13.70;99.90
21167;DHT22;10741;52.272;9.580;2023-05-29T06:44:57;13.80;99.90
21167;DHT22;10741;52.272;9.580;2023-05-29T06:47:23;13.90;99.90
21167;DHT22;10741;52.272;9.580;2023-05-29T06:49:48;14.00;99.90
21167;DHT22;10741;52.272;9.580;2023-05-29T06:52:14;14.20;99.90
21167;DHT22;10741;52.272;9.580;2023-05-29T06:54:40;14.30;99.90
21167;DHT22;10741;52.272;9.580;2023-05-29T06:57:07;14.40;99.90
21167;DHT22;10741;52.272;9.580;2023-05-29T06:59:33;14.40;99.90
21167;DHT22;10741;52.272;9.580;2023-05-29T07:01:58;14.50;99.90
21167;DHT22;10741;52.272;9.580;2023-05-29T07:04:24;14.50;99.90
21167;DHT22;10741;52.272;9.580;2023-05-29T07:06:50;14.50;99.90
21167;DHT22;10741;52.272;9.580;2023-05-29T07:09:16;14.60;99.90
21167;DHT22;10741;52.272;9.580;2023-05-29T07:11:42;14.60;99.90
21167;DHT22;10741;52.272;9.580;2023-05-29T07:14:08;14.50;99.90
21167;DHT22;10741;52.272;9.580;2023-05-29T07:16:34;14.50;99.90
21167;DHT22;10741;52.272;9.580;2023-05-29T07:18:59;14.70;99.90
21167;DHT22;10741;52.272;9.580;2023-05-29T07:21:25;14.70;99.90
21167;DHT22;10741;52.272;9.580;2023-05-29T07:23:51;14.70;99.90
21167;DHT22;10741;52.272;9.580;2023-05-29T07:26:17;14.90;99.90
21167;DHT22;10741;52.272;9.580;2023-05-29T07:28:42;14.90;99.90
21167;DHT22;10741;52.272;9.580;2023-05-29T07:31:08;14.90;99.90
21167;DHT22;10741;52.272;9.580;2023-05-29T07:33:34;14.80;99.90
21167;DHT22;10741;52.272;9.580;2023-05-29T07:36:00;14.90;99.90
21167;DHT22;10741;52.272;9.580;2023-05-29T07:38:26;15.00;99.90
21167;DHT22;10741;52.272;9.580;2023-05-29T07:40:52;15.30;99.90
21167;DHT22;10741;52.272;9.580;2023-05-29T07:43:17;15.40;99.90
21167;DHT22;10741;52.272;9.580;2023-05-29T07:45:43;15.50;99.90
21167;DHT22;10741;52.272;9.580;2023-05-29T07:48:09;15.70;99.90
21167;DHT22;10741;52.272;9.580;2023-05-29T07:50:35;15.70;99.90
21167;DHT22;10741;52.272;9.580;2023-05-29T07:53:02;15.80;99.90
21167;DHT22;10741;52.272;9.580;2023-05-29T07:55:28;15.80;99.90
21167;DHT22;10741;52.272;9.580;2023-05-29T07:57:53;16.00;99.90
21167;DHT22;10741;52.272;9.580;2023-05-29T08:00:19;16.10;99.90
21167;DHT22;10741;52.272;9.580;2023-05-29T08:02:45;16.00;99.90
21167;DHT22;10741;52.272;9.580;2023-05-29T08:05:11;15.90;99.90
21167;DHT22;10741;52.272;9.580;2023-05-29T08:07:38;16.30;99.90
21167;DHT22;10741;52.272;9.580;2023-05-29T08:10:04;16.60;99.90
21167;DHT22;10741;52.272;9.580;2023-05-29T08:12:31;16.90;99.90
21167;DHT22;10741;52.272;9.580;2023-05-29T08:14:57;17.20;99.90
21167;DHT22;10741;52.272;9.580;2023-05-29T08:17:22;17.30;99.90
21167;DHT22;10741;52.272;9.580;2023-05-29T08:19:48;17.30;99.90
21167;DHT22;10741;52.272;9.580;2023-05-29T08:22:14;17.50;99.90
21167;DHT22;10741;52.272;9.580;2023-05-29T08:24:40;17.50;99.90
21167;DHT22;10741;52.272;9.580;2023-05-29T08:27:06;17.70;99.90
21167;DHT22;10741;52.272;9.580;2023-05-29T08:29:32;17.70;99.90
21167;DHT22;10741;52.272;9.580;2023-05-29T08:31:58;17.50;99.90
21167;DHT22;10741;52.272;9.580;2023-05-29T08:34:23;17.60;99.90
21167;DHT22;10741;52.272;9.580;2023-05-29T08:36:49;17.50;99.90
21167;DHT22;10741;52.272;9.580;2023-05-29T08:39:17;17.50;99.90
21167;DHT22;10741;52.272;9.580;2023-05-29T08:42:01;17.80;99.90
21167;DHT22;10741;52.272;9.580;2023-05-29T08:44:30;18.00;99.90
21167;DHT22;10741;52.272;9.580;2023-05-29T08:47:03;18.40;99.90
21167;DHT22;10741;52.272;9.580;2023-05-29T08:49:41;18.80;99.90
21167;DHT22;10741;52.272;9.580;2023-05-29T08:52:21;18.90;99.90
21167;DHT22;10741;52.272;9.580;2023-05-29T08:54:47;19.00;99.90
21167;DHT22;10741;52.272;9.580;2023-05-29T08:57:13;19.40;99.90
21167;DHT22;10741;52.272;9.580;2023-05-29T08:59:43;19.30;99.90
21167;DHT22;10741;52.272;9.580;2023-05-29T09:02:11;19.60;99.90
21167;DHT22;10741;52.272;9.580;2023-05-29T09:04:37;19.40;99.90
21167;DHT22;10741;52.272;9.580;2023-05-29T09:07:04;19.50;99.90
21167;DHT22;10741;52.272;9.580;2023-05-29T09:09:31;19.30;99.90
21167;DHT22;10741;52.272;9.580;2023-05-29T09:11:57;19.10;99.90
21167;DHT22;10741;52.272;9.580;2023-05-29T09:14:37;19.40;99.90
21167;DHT22;10741;52.272;9.580;2023-05-29T09:17:05;19.40;99.90
21167;DHT22;10741;52.272;9.580;2023-05-29T09:19:33;19.00;99.90
21167;DHT22;10741;52.272;9.580;2023-05-29T09:22:03;19.40;99.90
21167;DHT22;10741;52.272;9.580;2023-05-29T09:24:29;19.20;99.90
21167;DHT22;10741;52.272;9.580;2023-05-29T09:26:56;19.30;99.90
21167;DHT22;10741;52.272;9.580;2023-05-29T09:29:24;19.30;99.90
21167;DHT22;10741;52.272;9.580;2023-05-29T09:31:50;19.70;99.90
21167;DHT22;10741;52.272;9.580;2023-05-29T09:34:16;19.70;99.90
21167;DHT22;10741;52.272;9.580;2023-05-29T09:36:42;19.60;99.90
21167;DHT22;10741;52.272;9.580;2023-05-29T09:39:07;19.90;99.90
21167;DHT22;10741;52.272;9.580;2023-05-29T09:41:43;20.10;99.90
21167;DHT22;10741;52.272;9.580;2023-05-29T09:44:16;20.20;99.90
21167;DHT22;10741;52.272;9.580;2023-05-29T09:46:42;20.50;99.90
21167;DHT22;10741;52.272;9.580;2023-05-29T09:49:14;20.60;99.90
21167;DHT22;10741;52.272;9.580;2023-05-29T09:51:42;20.50;99.90
21167;DHT22;10741;52.272;9.580;2023-05-29T09:54:16;20.50;99.90
21167;DHT22;10741;52.272;9.580;2023-05-29T09:56:43;20.80;99.90
21167;DHT22;10741;52.272;9.580;2023-05-29T09:59:13;21.00;99.90
21167;DHT22;10741;52.272;9.580;2023-05-29T10:01:43;21.30;99.90
21167;DHT22;10741;52.272;9.580;2023-05-29T10:04:11;20.90;99.90
21167;DHT22;10741;52.272;9.580;2023-05-29T10:06:38;20.90;99.90
21167;DHT22;10741;52.272;9.580;2023-05-29T10:09:09;20.90;98.40
21167;DHT22;10741;52.272;9.580;2023-05-29T10:11:38;20.70;99.60
21167;DHT22;10741;52.272;9.580;2023-05-29T10:14:06;20.80;99.90
21167;DHT22;10741;52.272;9.580;2023-05-29T10:16:34;21.10;99.90
21167;DHT22;10741;52.272;9.580;2023-05-29T10:19:06;21.30;97.90
21167;DHT22;10741;52.272;9.580;2023-05-29T10:21:36;21.10;98.60
21167;DHT22;10741;52.272;9.580;2023-05-29T10:24:04;21.30;98.30
21167;DHT22;10741;52.272;9.580;2023-05-29T10:26:37;21.50;99.60
21167;DHT22;10741;52.272;9.580;2023-05-29T10:29:40;21.40;98.40
21167;DHT22;10741;52.272;9.580;2023-05-29T10:35:06;21.70;97.40
21167;DHT22;10741;52.272;9.580;2023-05-29T10:37:44;22.00;97.50
21167;DHT22;10741;52.272;9.580;2023-05-29T10:40:11;22.10;97.20
21167;DHT22;10741;52.272;9.580;2023-05-29T10:42:45;22.40;95.70
21167;DHT22;10741;52.272;9.580;2023-05-29T10:50:43;22.90;95.40
21167;DHT22;10741;52.272;9.580;2023-05-29T10:53:17;23.00;93.50
21167;DHT22;10741;52.272;9.580;2023-05-29T10:55:43;22.90;93.90
21167;DHT22;10741;52.272;9.580;2023-05-29T10:58:18;23.00;94.00
21167;DHT22;10741;52.272;9.580;2023-05-29T11:00:45;22.70;94.00
21167;DHT22;10741;52.272;9.580;2023-05-29T11:03:15;22.90;93.90
21167;DHT22;10741;52.272;9.580;2023-05-29T11:08:34;23.30;93.60
21167;DHT22;10741;52.272;9.580;2023-05-29T11:11:01;23.50;93.90
21167;DHT22;10741;52.272;9.580;2023-05-29T11:13:35;23.60;94.00
21167;DHT22;10741;52.272;9.580;2023-05-29T11:19:06;24.30;91.60
21167;DHT22;10741;52.272;9.580;2023-05-29T11:22:01;24.60;93.00
21167;DHT22;10741;52.272;9.580;2023-05-29T11:24:32;24.50;93.20
21167;DHT22;10741;52.272;9.580;2023-05-29T11:26:58;24.60;92.90
21167;DHT22;10741;52.272;9.580;2023-05-29T11:29:29;24.80;93.20
21167;DHT22;10741;52.272;9.580;2023-05-29T11:32:01;25.10;92.30
21167;DHT22;10741;52.272;9.580;2023-05-29T11:34:32;25.10;90.40
21167;DHT22;10741;52.272;9.580;2023-05-29T11:37:02;25.00;92.20
21167;DHT22;10741;52.272;9.580;2023-05-29T11:39:28;25.00;91.80
21167;DHT22;10741;52.272;9.580;2023-05-29T11:41:55;24.80;91.00
21167;DHT22;10741;52.272;9.580;2023-05-29T11:44:24;25.10;90.90
21167;DHT22;10741;52.272;9.580;2023-05-29T11:47:04;24.70;88.50
21167;DHT22;10741;52.272;9.580;2023-05-29T11:49:31;24.40;92.90
21167;DHT22;10741;52.272;9.580;2023-05-29T11:52:14;25.00;89.70
21167;DHT22;10741;52.272;9.580;2023-05-29T11:54:42;25.30;91.20
21167;DHT22;10741;52.272;9.580;2023-05-29T11:57:18;25.60;90.10
21167;DHT22;10741;52.272;9.580;2023-05-29T11:59:44;25.90;87.50
21167;DHT22;10741;52.272;9.580;2023-05-29T12:02:10;25.90;89.30
21167;DHT22;10741;52.272;9.580;2023-05-29T12:04:37;26.00;87.10
21167;DHT22;10741;52.272;9.580;2023-05-29T12:07:17;25.90;87.50
21167;DHT22;10741;52.272;9.580;2023-05-29T12:09:43;26.10;85.70
21167;DHT22;10741;52.272;9.580;2023-05-29T12:12:09;26.30;83.80
21167;DHT22;10741;52.272;9.580;2023-05-29T12:14:34;26.30;86.90
21167;DHT22;10741;52.272;9.580;2023-05-29T12:17:00;26.20;86.30
21167;DHT22;10741;52.272;9.580;2023-05-29T12:19:26;26.20;84.20
21167;DHT22;10741;52.272;9.580;2023-05-29T12:21:52;26.60;82.60
21167;DHT22;10741;52.272;9.580;2023-05-29T12:24:19;26.50;84.70
21167;DHT22;10741;52.272;9.580;2023-05-29T12:26:45;26.40;81.40
21167;DHT22;10741;52.272;9.580;2023-05-29T12:29:13;26.50;85.10
21167;DHT22;10741;52.272;9.580;2023-05-29T12:31:38;26.80;83.70
21167;DHT22;10741;52.272;9.580;2023-05-29T12:34:10;26.80;85.30
21167;DHT22;10741;52.272;9.580;2023-05-29T12:36:40;26.50;80.00
21167;DHT22;10741;52.272;9.580;2023-05-29T12:39:07;26.50;81.80
21167;DHT22;10741;52.272;9.580;2023-05-29T12:41:37;26.70;79.00
21167;DHT22;10741;52.272;9.580;2023-05-29T12:44:05;26.90;79.80
21167;DHT22;10741;52.272;9.580;2023-05-29T12:46:41;27.10;79.30
21167;DHT22;10741;52.272;9.580;2023-05-29T12:49:17;27.30;81.60
21167;DHT22;10741;52.272;9.580;2023-05-29T12:51:47;26.60;78.70
21167;DHT22;10741;52.272;9.580;2023-05-29T12:54:16;26.40;80.40
21167;DHT22;10741;52.272;9.580;2023-05-29T12:56:43;26.50;78.80
21167;DHT22;10741;52.272;9.580;2023-05-29T12:59:10;26.70;78.80
21167;DHT22;10741;52.272;9.580;2023-05-29T13:01:36;26.90;78.60
21167;DHT22;10741;52.272;9.580;2023-05-29T13:04:04;26.80;77.30
21167;DHT22;10741;52.272;9.580;2023-05-29T13:06:35;26.50;82.70
21167;DHT22;10741;52.272;9.580;2023-05-29T13:09:02;26.60;77.70
21167;DHT22;10741;52.272;9.580;2023-05-29T13:11:28;26.60;78.10
21167;DHT22;10741;52.272;9.580;2023-05-29T13:13:54;26.80;78.00
21167;DHT22;10741;52.272;9.580;2023-05-29T13:16:19;26.60;78.00
21167;DHT22;10741;52.272;9.580;2023-05-29T13:18:45;26.70;76.60
21167;DHT22;10741;52.272;9.580;2023-05-29T13:21:11;26.40;79.50
21167;DHT22;10741;52.272;9.580;2023-05-29T13:23:37;26.80;73.70
21167;DHT22;10741;52.272;9.580;2023-05-29T13:26:04;26.90;76.30
21167;DHT22;10741;52.272;9.580;2023-05-29T13:28:30;26.50;74.30
21167;DHT22;10741;52.272;9.580;2023-05-29T13:30:56;26.60;75.90
21167;DHT22;10741;52.272;9.580;2023-05-29T13:33:22;26.70;76.10
21167;DHT22;10741;52.272;9.580;2023-05-29T13:35:48;27.10;77.50
21167;DHT22;10741;52.272;9.580;2023-05-29T13:38:13;27.20;73.80
21167;DHT22;10741;52.272;9.580;2023-05-29T13:40:39;27.00;74.10
21167;DHT22;10741;52.272;9.580;2023-05-29T13:43:05;27.10;72.50
21167;DHT22;10741;52.272;9.580;2023-05-29T13:45:31;27.10;72.70
21167;DHT22;10741;52.272;9.580;2023-05-29T13:47:57;26.90;71.00
21167;DHT22;10741;52.272;9.580;2023-05-29T13:50:23;26.60;71.80
21167;DHT22;10741;52.272;9.580;2023-05-29T13:52:50;26.60;68.90
21167;DHT22;10741;52.272;9.580;2023-05-29T13:55:16;26.70;67.00
21167;DHT22;10741;52.272;9.580;2023-05-29T13:57:42;26.60;69.10
21167;DHT22;10741;52.272;9.580;2023-05-29T14:00:09;26.80;68.20
21167;DHT22;10741;52.272;9.580;2023-05-29T14:02:36;27.30;66.50
21167;DHT22;10741;52.272;9.580;2023-05-29T14:05:02;27.00;66.50
21167;DHT22;10741;52.272;9.580;2023-05-29T14:07:28;26.90;69.80
21167;DHT22;10741;52.272;9.580;2023-05-29T14:09:54;26.90;63.70
21167;DHT22;10741;52.272;9.580;2023-05-29T14:12:20;26.90;59.40
21167;DHT22;10741;52.272;9.580;2023-05-29T14:14:46;26.70;60.70
21167;DHT22;10741;52.272;9.580;2023-05-29T14:17:13;26.30;62.10
21167;DHT22;10741;52.272;9.580;2023-05-29T14:19:39;26.30;61.90
21167;DHT22;10741;52.272;9.580;2023-05-29T14:22:04;26.60;61.90
21167;DHT22;10741;52.272;9.580;2023-05-29T14:24:30;26.40;60.40
21167;DHT22;10741;52.272;9.580;2023-05-29T14:26:57;26.10;62.10
21167;DHT22;10741;52.272;9.580;2023-05-29T14:29:23;26.00;62.40
21167;DHT22;10741;52.272;9.580;2023-05-29T14:31:48;25.40;60.30
21167;DHT22;10741;52.272;9.580;2023-05-29T14:34:14;25.40;62.30
21167;DHT22;10741;52.272;9.580;2023-05-29T14:36:40;25.50;60.30
21167;DHT22;10741;52.272;9.580;2023-05-29T14:39:07;26.00;59.70
21167;DHT22;10741;52.272;9.580;2023-05-29T14:41:32;25.50;58.90
21167;DHT22;10741;52.272;9.580;2023-05-29T14:44:00;25.30;60.60
21167;DHT22;10741;52.272;9.580;2023-05-29T14:46:26;25.20;60.20
21167;DHT22;10741;52.272;9.580;2023-05-29T14:48:54;24.20;58.00
21167;DHT22;10741;52.272;9.580;2023-05-29T14:51:20;23.80;62.10
21167;DHT22;10741;52.272;9.580;2023-05-29T14:53:46;23.40;62.00
21167;DHT22;10741;52.272;9.580;2023-05-29T14:56:12;23.00;63.40
21167;DHT22;10741;52.272;9.580;2023-05-29T14:58:38;22.80;63.70
21167;DHT22;10741;52.272;9.580;2023-05-29T15:01:04;22.60;67.50
21167;DHT22;10741;52.272;9.580;2023-05-29T15:03:30;22.20;64.30
21167;DHT22;10741;52.272;9.580;2023-05-29T15:05:55;22.20;66.30
21167;DHT22;10741;52.272;9.580;2023-05-29T15:08:22;21.90;65.10
21167;DHT22;10741;52.272;9.580;2023-05-29T15:10:48;21.50;70.40
21167;DHT22;10741;52.272;9.580;2023-05-29T15:13:14;21.60;71.90
21167;DHT22;10741;52.272;9.580;2023-05-29T15:15:39;21.40;70.70
21167;DHT22;10741;52.272;9.580;2023-05-29T15:18:06;21.30;70.80
21167;DHT22;10741;52.272;9.580;2023-05-29T15:20:31;21.30;72.50
21167;DHT22;10741;52.272;9.580;2023-05-29T15:22:57;21.10;70.90
21167;DHT22;10741;52.272;9.580;2023-05-29T15:25:23;21.00;72.80
21167;DHT22;10741;52.272;9.580;2023-05-29T15:27:49;20.90;72.60
21167;DHT22;10741;52.272;9.580;2023-05-29T15:30:16;20.80;72.60
21167;DHT22;10741;52.272;9.580;2023-05-29T15:32:43;20.90;74.80
21167;DHT22;10741;52.272;9.580;2023-05-29T15:35:11;21.00;72.30
21167;DHT22;10741;52.272;9.580;2023-05-29T15:37:38;20.90;69.90
21167;DHT22;10741;52.272;9.580;2023-05-29T15:40:04;20.70;72.90
21167;DHT22;10741;52.272;9.580;2023-05-29T15:42:31;20.60;72.10
21167;DHT22;10741;52.272;9.580;2023-05-29T15:44:57;20.60;73.30
21167;DHT22;10741;52.272;9.580;2023-05-29T15:47:23;20.50;71.00
21167;DHT22;10741;52.272;9.580;2023-05-29T15:49:49;20.50;72.50